createdAt,value
2023-01-01T00:01:15.092Z,68.73
2023-01-01T00:04:18.995Z,65.07
2023-01-01T00:07:22.745Z,59.40
2023-01-01T00:10:33.492Z,53.50
2023-01-01T00:13:40.687Z,45.80
2023-01-01T00:16:44.638Z,44.93
2023-01-01T00:19:48.475Z,37.43
2023-01-01T00:22:54.957Z,38.33
2023-01-01T00:25:59.513Z,41.67
2023-01-01T00:29:05.540Z,41.40
2023-01-01T00:32:11.700Z,38.73
2023-01-01T00:35:15.516Z,39.03
2023-01-01T00:38:19.310Z,38.10
2023-01-01T00:41:23.789Z,37.00
2023-01-01T00:44:29.047Z,31.00
2023-01-01T00:47:32.955Z,29.43
2023-01-01T00:50:36.771Z,28.17
2023-01-01T00:53:40.723Z,25.97
2023-01-01T00:56:44.502Z,25.70
2023-01-01T00:59:49.762Z,24.87
2023-01-01T01:02:53.551Z,25.67
2023-01-01T01:05:58.491Z,25.17
2023-01-01T01:09:02.278Z,34.93
2023-01-01T01:12:17.483Z,42.80
2023-01-01T01:15:24.103Z,46.67
2023-01-01T01:18:28.116Z,45.90
2023-01-01T01:21:34.067Z,30.90
2023-01-01T01:24:37.873Z,32.03
2023-01-01T01:27:41.682Z,34.83
2023-01-01T01:30:46.918Z,33.87
2023-01-01T01:33:51.249Z,34.03
2023-01-01T01:36:55.093Z,33.97
2023-01-01T01:39:58.924Z,30.60
2023-01-01T01:43:02.816Z,29.67
2023-01-01T01:46:12.326Z,29.10
2023-01-01T01:49:20.111Z,29.93
2023-01-01T01:52:24.132Z,28.70
2023-01-01T01:55:30.241Z,30.23
2023-01-01T01:58:35.469Z,26.13
2023-01-01T02:01:41.021Z,27.53
2023-01-01T02:04:44.881Z,27.90
2023-01-01T02:07:48.876Z,24.87
2023-01-01T02:10:52.640Z,25.87
2023-01-01T02:13:58.272Z,24.30
2023-01-01T02:17:10.941Z,25.07
2023-01-01T02:20:43.532Z,25.90
2023-01-01T02:24:02.597Z,24.63
2023-01-01T02:27:13.834Z,24.73
2023-01-01T02:30:20.284Z,24.40
2023-01-01T02:33:27.388Z,24.60
2023-01-01T02:36:35.120Z,24.10
2023-01-01T02:39:43.902Z,24.27
2023-01-01T02:42:48.623Z,25.10
2023-01-01T02:45:54.502Z,25.67
2023-01-01T02:48:58.363Z,30.17
2023-01-01T02:52:08.384Z,26.90
2023-01-01T02:55:26.305Z,28.40
2023-01-01T02:58:55.421Z,28.90
2023-01-01T03:02:12.024Z,27.97
2023-01-01T03:05:22.644Z,27.97
2023-01-01T03:08:35.804Z,28.33
2023-01-01T03:11:48.571Z,30.93
2023-01-01T03:14:56.927Z,29.20
2023-01-01T03:18:07.210Z,29.13
2023-01-01T03:24:21.581Z,29.87
2023-01-01T03:27:29.944Z,29.83
2023-01-01T03:30:37.983Z,31.37
2023-01-01T03:33:46.879Z,30.27
2023-01-01T03:36:54.459Z,31.07
2023-01-01T03:40:01.493Z,30.47
2023-01-01T03:43:10.311Z,29.80
2023-01-01T03:46:15.053Z,31.03
2023-01-01T03:49:21.893Z,31.97
2023-01-01T03:52:36.133Z,33.73
2023-01-01T03:55:45.287Z,32.17
2023-01-01T03:58:55.535Z,33.77
2023-01-01T04:02:03.806Z,30.73
2023-01-01T04:05:11.556Z,32.33
2023-01-01T04:08:17.478Z,31.23
2023-01-01T04:11:44.199Z,32.63
2023-01-01T04:14:47.998Z,31.37
2023-01-01T04:17:52.146Z,34.57
2023-01-01T04:20:57.257Z,35.07
2023-01-01T04:24:01.031Z,34.27
2023-01-01T04:27:04.817Z,34.20
2023-01-01T04:30:11.808Z,33.97
2023-01-01T04:33:15.504Z,34.63
2023-01-01T04:36:20.987Z,33.10
2023-01-01T04:39:24.627Z,34.53
2023-01-01T04:42:28.272Z,33.97
2023-01-01T04:45:31.933Z,34.10
2023-01-01T04:48:37.460Z,32.70
2023-01-01T04:51:42.652Z,32.27
2023-01-01T04:54:46.335Z,32.03
2023-01-01T04:57:50.114Z,33.33
2023-01-01T05:00:53.791Z,31.70
2023-01-01T05:03:58.170Z,32.80
2023-01-01T05:07:03.272Z,30.57
2023-01-01T05:10:07.980Z,32.60
2023-01-01T05:13:11.742Z,30.60
2023-01-01T05:16:17.123Z,29.27
2023-01-01T05:19:20.810Z,29.23
2023-01-01T05:22:25.825Z,28.87
2023-01-01T05:25:29.507Z,29.47
2023-01-01T05:28:33.095Z,28.90
2023-01-01T05:31:37.663Z,30.43
2023-01-01T05:34:41.300Z,31.57
2023-01-01T05:37:46.518Z,32.80
2023-01-01T05:40:50.161Z,32.10
2023-01-01T05:43:54.597Z,31.13
2023-01-01T05:46:58.519Z,30.93
2023-01-01T05:53:07.123Z,33.67
2023-01-01T05:56:10.805Z,30.23
2023-01-01T05:59:14.638Z,32.27
2023-01-01T06:02:18.638Z,33.63
2023-01-01T06:05:22.707Z,31.97
2023-01-01T06:08:27.751Z,31.13
2023-01-01T06:11:32.323Z,29.63
2023-01-01T06:14:35.880Z,32.10
2023-01-01T06:17:39.505Z,31.07
2023-01-01T06:20:43.174Z,31.10
2023-01-01T06:23:49.828Z,30.60
2023-01-01T06:26:53.686Z,29.97
2023-01-01T06:29:58.058Z,30.40
2023-01-01T06:33:01.827Z,34.00
2023-01-01T06:36:08.258Z,32.30
2023-01-01T06:39:13.515Z,39.20
2023-01-01T06:42:17.765Z,36.57
2023-01-01T06:45:21.509Z,34.20
2023-01-01T06:48:25.261Z,33.63
2023-01-01T06:51:30.683Z,33.37
2023-01-01T06:54:35.922Z,34.83
2023-01-01T06:57:39.797Z,35.40
2023-01-01T07:00:43.783Z,33.47
2023-01-01T07:03:52.983Z,35.20
2023-01-01T07:06:56.722Z,34.23
2023-01-01T07:10:01.992Z,34.43
2023-01-01T07:13:06.483Z,33.87
2023-01-01T07:16:13.486Z,32.40
2023-01-01T07:19:17.536Z,35.57
2023-01-01T07:22:21.312Z,37.40
2023-01-01T07:25:26.807Z,40.77
2023-01-01T07:28:30.496Z,47.97
2023-01-01T07:31:34.287Z,51.00
2023-01-01T07:34:38.076Z,47.53
2023-01-01T07:37:41.903Z,45.17
2023-01-01T07:40:47.267Z,40.13
2023-01-01T07:43:51.258Z,26.00
2023-01-01T07:47:04.085Z,25.50
2023-01-01T07:50:08.520Z,26.10
2023-01-01T07:53:12.539Z,22.93
2023-01-01T07:56:17.737Z,25.70
2023-01-01T07:59:21.462Z,31.53
2023-01-01T08:02:26.537Z,33.70
2023-01-01T08:05:30.359Z,31.67
2023-01-01T08:08:34.177Z,30.43
2023-01-01T08:11:39.464Z,34.13
2023-01-01T08:14:43.224Z,35.90
2023-01-01T08:17:47.539Z,33.77
2023-01-01T08:20:51.416Z,29.87
2023-01-01T08:23:55.455Z,27.03
2023-01-01T08:27:00.709Z,24.70
2023-01-01T08:30:04.476Z,22.97
2023-01-01T08:33:08.148Z,22.27
2023-01-01T08:36:14.678Z,21.63
2023-01-01T08:39:18.481Z,24.73
2023-01-01T08:42:23.945Z,22.40
2023-01-01T08:45:27.635Z,23.70
2023-01-01T08:48:31.448Z,26.80
2023-01-01T08:51:35.325Z,21.83
2023-01-01T08:54:39.005Z,18.97
2023-01-01T08:57:44.307Z,18.33
2023-01-01T09:00:47.952Z,17.33
2023-01-01T09:03:51.944Z,17.07
2023-01-01T09:06:55.660Z,16.50
2023-01-01T09:09:59.488Z,17.40
2023-01-01T09:13:04.591Z,17.70
2023-01-01T09:16:09.227Z,35.20
2023-01-01T09:19:13.040Z,19.00
2023-01-01T09:22:16.904Z,16.73
2023-01-01T09:25:20.937Z,19.10
2023-01-01T09:28:27.427Z,17.73
2023-01-01T09:31:31.286Z,16.60
2023-01-01T09:34:35.084Z,17.37
2023-01-01T09:37:38.933Z,17.23
2023-01-01T09:40:54.678Z,17.70
2023-01-01T09:44:09.727Z,17.33
2023-01-01T09:47:27.643Z,16.77
2023-01-01T09:50:36.394Z,17.43
2023-01-01T09:53:44.490Z,17.73
2023-01-01T09:56:49.800Z,18.80
2023-01-01T09:59:55.231Z,19.20
2023-01-01T10:03:26.720Z,19.53
2023-01-01T10:06:33.348Z,20.03
2023-01-01T10:09:46.722Z,18.97
2023-01-01T10:12:58.926Z,18.50
2023-01-01T10:16:15.998Z,19.43
2023-01-01T10:19:29.442Z,19.53
2023-01-01T10:22:41.827Z,20.40
2023-01-01T10:25:46.510Z,20.90
2023-01-01T10:29:02.498Z,23.00
2023-01-01T10:32:19.798Z,20.93
2023-01-01T10:35:31.471Z,20.17
2023-01-01T10:38:38.017Z,21.13
2023-01-01T10:41:41.792Z,22.43
2023-01-01T10:44:45.831Z,20.50
2023-01-01T10:48:14.033Z,19.83
2023-01-01T10:51:21.207Z,19.70
2023-01-01T10:54:35.332Z,21.80
2023-01-01T10:57:40.724Z,22.63
2023-01-01T11:00:44.609Z,21.60
2023-01-01T11:03:58.577Z,25.67
2023-01-01T11:07:02.459Z,19.87
2023-01-01T11:10:08.845Z,21.33
2023-01-01T11:13:21.902Z,45.07
2023-01-01T11:16:26.629Z,20.63
2023-01-01T11:19:36.779Z,35.37
2023-01-01T11:22:43.322Z,26.97
2023-01-01T11:26:03.202Z,22.77
2023-01-01T11:29:22.679Z,24.83
2023-01-01T11:32:34.917Z,26.60
2023-01-01T11:35:51.697Z,31.13
2023-01-01T11:39:21.240Z,17.20
2023-01-01T11:42:27.830Z,17.13
2023-01-01T11:45:37.760Z,26.37
2023-01-01T11:48:45.102Z,30.30
2023-01-01T11:51:50.315Z,18.40
2023-01-01T11:54:55.030Z,18.73
2023-01-01T11:58:05.810Z,28.23
2023-01-01T12:01:16.028Z,33.37
2023-01-01T12:04:24.171Z,16.47
2023-01-01T12:07:33.378Z,14.60
2023-01-01T12:10:46.399Z,14.97
2023-01-01T12:13:55.230Z,18.07
2023-01-01T12:17:03.408Z,18.43
2023-01-01T12:20:15.235Z,15.50
2023-01-01T12:23:21.192Z,15.20
2023-01-01T12:26:28.260Z,15.17
2023-01-01T12:30:06.010Z,21.83
2023-01-01T12:33:34.009Z,15.93
2023-01-01T12:36:46.864Z,29.23
2023-01-01T12:40:25.063Z,22.70
2023-01-01T12:43:37.428Z,41.47
2023-01-01T12:46:51.494Z,31.97
2023-01-01T12:50:10.852Z,17.10
2023-01-01T12:53:28.368Z,16.23
2023-01-01T12:56:37.341Z,14.53
2023-01-01T12:59:47.147Z,12.17
2023-01-01T13:02:54.637Z,13.50
2023-01-01T13:05:59.131Z,14.33
2023-01-01T13:09:09.338Z,13.27
2023-01-01T13:12:19.141Z,14.57
2023-01-01T13:15:51.373Z,13.33
2023-01-01T13:18:59.034Z,11.67
2023-01-01T13:22:39.292Z,12.53
2023-01-01T13:25:43.058Z,12.30
2023-01-01T13:29:26.534Z,12.30
2023-01-01T13:32:50.337Z,12.13
2023-01-01T13:36:32.144Z,12.67
2023-01-01T13:39:56.095Z,12.70
2023-01-01T13:43:28.322Z,13.00
2023-01-01T13:46:44.377Z,13.23
2023-01-01T13:50:06.054Z,13.50
2023-01-01T13:53:33.602Z,14.47
2023-01-01T13:56:45.491Z,18.07
2023-01-01T14:00:06.994Z,16.07
2023-01-01T14:03:32.848Z,15.07
2023-01-01T14:06:39.704Z,15.63
2023-01-01T14:09:43.455Z,21.57
2023-01-01T14:12:47.267Z,17.43
2023-01-01T14:15:56.712Z,15.27
2023-01-01T14:19:03.602Z,15.10
2023-01-01T14:22:09.148Z,16.93
2023-01-01T14:25:18.333Z,17.63
2023-01-01T14:28:27.324Z,20.47
2023-01-01T14:31:33.393Z,23.43
2023-01-01T14:34:38.666Z,23.67
2023-01-01T14:37:42.494Z,29.47
2023-01-01T14:40:47.675Z,24.23
2023-01-01T14:43:53.922Z,29.77
2023-01-01T14:46:58.588Z,31.80
2023-01-01T14:50:06.833Z,35.30
2023-01-01T14:53:18.972Z,24.03
2023-01-01T14:56:25.370Z,23.87
2023-01-01T14:59:32.351Z,42.93
2023-01-01T15:02:40.528Z,60.43
2023-01-01T15:05:47.189Z,46.07
2023-01-01T15:08:51.802Z,33.60
2023-01-01T15:11:59.354Z,27.90
2023-01-01T15:15:03.767Z,28.93
2023-01-01T15:18:07.787Z,27.40
2023-01-01T15:21:25.461Z,32.83
2023-01-01T15:24:30.766Z,37.97
2023-01-01T15:27:36.926Z,51.57
2023-01-01T15:30:40.854Z,39.10
2023-01-01T15:33:49.159Z,36.87
2023-01-01T15:36:56.112Z,35.13
2023-01-01T15:40:02.167Z,30.57
2023-01-01T15:43:25.391Z,24.53
2023-01-01T15:46:32.609Z,32.07
2023-01-01T15:49:36.588Z,44.90
2023-01-01T15:52:48.056Z,77.77
2023-01-01T15:55:57.591Z,55.73
2023-01-01T15:59:09.205Z,86.50
2023-01-01T16:02:18.426Z,44.27
2023-01-01T16:05:25.143Z,54.37
2023-01-01T16:08:30.526Z,75.53
2023-01-01T16:11:34.339Z,54.77
2023-01-01T16:14:38.159Z,58.57
2023-01-01T16:17:42.013Z,161.73
2023-01-01T16:20:46.149Z,94.47
2023-01-01T16:23:51.467Z,115.33
2023-01-01T16:26:55.272Z,85.73
2023-01-01T16:29:59.116Z,59.97
2023-01-01T16:33:03.059Z,52.37
2023-01-01T16:36:07.584Z,47.10
2023-01-01T16:39:13.346Z,38.87
2023-01-01T16:42:17.142Z,39.60
2023-01-01T16:45:21.059Z,39.20
2023-01-01T16:48:25.008Z,39.20
2023-01-01T16:51:31.672Z,43.27
2023-01-01T16:54:36.906Z,68.87
2023-01-01T16:57:41.040Z,55.83
2023-01-01T17:00:44.843Z,62.87
2023-01-01T17:03:48.612Z,74.03
2023-01-01T17:06:52.480Z,95.90
2023-01-01T17:09:57.790Z,71.20
2023-01-01T17:13:03.124Z,63.87
2023-01-01T17:16:08.973Z,50.23
2023-01-01T17:19:15.488Z,50.13
2023-01-01T17:22:21.558Z,48.70
2023-01-01T17:25:26.776Z,51.37
2023-01-01T17:28:30.595Z,44.83
2023-01-01T17:31:34.477Z,45.60
2023-01-01T17:34:38.230Z,43.07
2023-01-01T17:37:42.015Z,41.90
2023-01-01T17:40:47.553Z,49.93
2023-01-01T17:43:53.074Z,76.20
2023-01-01T17:46:57.505Z,61.50
2023-01-01T17:50:01.272Z,56.60
2023-01-01T17:53:10.604Z,58.17
2023-01-01T17:56:20.808Z,55.30
2023-01-01T17:59:24.720Z,49.90
2023-01-01T18:02:28.679Z,43.83
2023-01-01T18:05:32.544Z,46.00
2023-01-01T18:08:36.246Z,49.30
2023-01-01T18:11:42.040Z,43.40
2023-01-01T18:14:45.690Z,54.87
2023-01-01T18:17:49.464Z,50.50
2023-01-01T18:20:53.185Z,51.00
2023-01-01T18:23:59.091Z,43.00
2023-01-01T18:27:04.401Z,48.83
2023-01-01T18:30:08.990Z,112.60
2023-01-01T18:33:13.330Z,43.63
2023-01-01T18:36:19.009Z,40.63
2023-01-01T18:39:24.127Z,40.40
2023-01-01T18:42:40.481Z,42.80
2023-01-01T18:45:44.240Z,42.03
2023-01-01T18:48:48.015Z,43.43
2023-01-01T18:51:56.556Z,45.83
2023-01-01T18:55:14.222Z,46.63
2023-01-01T18:58:22.655Z,45.50
2023-01-01T19:01:26.535Z,47.23
2023-01-01T19:04:30.384Z,47.47
2023-01-01T19:07:34.174Z,45.93
2023-01-01T19:10:41.260Z,44.47
2023-01-01T19:13:46.394Z,45.70
2023-01-01T19:16:52.605Z,49.17
2023-01-01T19:19:56.595Z,47.50
2023-01-01T19:23:00.576Z,177.67
2023-01-01T19:26:07.217Z,74.27
2023-01-01T19:29:17.205Z,45.47
2023-01-01T19:32:22.202Z,46.37
2023-01-01T19:35:25.965Z,46.97
2023-01-01T19:38:29.836Z,47.53
2023-01-01T19:41:33.973Z,49.70
2023-01-01T19:44:39.235Z,52.50
2023-01-01T19:47:43.720Z,53.07
2023-01-01T19:50:48.979Z,50.43
2023-01-01T19:53:52.905Z,51.27
2023-01-01T19:56:57.515Z,53.77
2023-01-01T20:00:04.250Z,52.33
2023-01-01T20:06:39.510Z,51.13
2023-01-01T20:09:43.316Z,54.93
2023-01-01T20:12:47.495Z,52.70
2023-01-01T20:15:52.993Z,56.43
2023-01-01T20:18:56.855Z,53.60
2023-01-01T20:22:20.328Z,54.23
2023-01-01T20:25:24.015Z,53.40
2023-01-01T20:28:45.090Z,55.00
2023-01-01T20:31:52.215Z,56.63
2023-01-01T20:34:56.228Z,57.37
2023-01-01T20:37:58.961Z,55.77
2023-01-01T20:41:22.870Z,49.93
2023-01-01T20:44:26.737Z,48.00
2023-01-01T20:47:31.860Z,47.97
2023-01-01T20:50:35.636Z,40.93
2023-01-01T20:53:39.326Z,62.83
2023-01-01T20:56:43.087Z,44.03
2023-01-01T20:59:46.723Z,42.80
2023-01-01T21:02:52.070Z,45.43
2023-01-01T21:05:55.978Z,38.17
2023-01-01T21:08:59.666Z,36.60
2023-01-01T21:12:03.543Z,35.70
2023-01-01T21:15:15.563Z,179.13
2023-01-01T21:18:20.851Z,35.97
2023-01-01T21:21:26.165Z,43.90
2023-01-01T21:24:34.398Z,49.57
2023-01-01T21:27:39.819Z,40.00
2023-01-01T21:30:52.016Z,39.77
2023-01-01T21:33:57.357Z,54.97
2023-01-01T21:37:07.594Z,31.30
2023-01-01T21:40:50.224Z,28.67
2023-01-01T21:43:56.140Z,24.30
2023-01-01T21:47:02.005Z,24.93
2023-01-01T21:50:23.403Z,24.23
2023-01-01T21:53:31.734Z,25.07
2023-01-01T21:56:38.603Z,24.60
2023-01-01T21:59:45.242Z,24.23
2023-01-01T22:02:49.735Z,24.00
2023-01-01T22:05:59.254Z,23.40
2023-01-01T22:09:04.016Z,23.47
2023-01-01T22:12:21.251Z,24.63
2023-01-01T22:15:31.802Z,24.03
2023-01-01T22:18:40.067Z,24.67
2023-01-01T22:21:45.837Z,26.07
2023-01-01T22:24:55.178Z,28.17
2023-01-01T22:27:59.280Z,31.60
2023-01-01T22:31:04.138Z,32.30
2023-01-01T22:34:15.787Z,31.67
2023-01-01T22:37:22.917Z,33.17
2023-01-01T22:40:30.723Z,34.30
2023-01-01T22:43:38.668Z,35.63
2023-01-01T22:46:42.895Z,37.13
2023-01-01T22:49:51.548Z,36.37
2023-01-01T22:52:56.829Z,36.93
2023-01-01T22:56:01.756Z,36.80
2023-01-01T22:59:05.404Z,37.57
2023-01-01T23:02:09.334Z,38.50
2023-01-01T23:05:13.859Z,36.33
2023-01-01T23:08:19.303Z,37.37
2023-01-01T23:11:23.223Z,38.00
2023-01-01T23:14:44.373Z,36.53
2023-01-01T23:17:48.004Z,33.67
2023-01-01T23:20:51.734Z,33.47
2023-01-01T23:23:59.009Z,32.23
2023-01-01T23:27:04.244Z,31.63
2023-01-01T23:30:09.708Z,34.00
2023-01-01T23:33:14.036Z,33.10
2023-01-01T23:36:17.730Z,32.27
2023-01-01T23:39:23.115Z,31.10
2023-01-01T23:42:26.691Z,30.63
2023-01-01T23:45:30.425Z,30.60
2023-01-01T23:48:34.057Z,31.13
2023-01-01T23:51:39.509Z,32.67
2023-01-01T23:54:44.467Z,29.03
2023-01-01T23:57:48.012Z,30.17
